This is the latest recevied weather packets stored in our database for station/object KC5DAQ-27. If no packets are shown the sender has not sent any weather packets the latest 1 day(s).
| Time | Temp. | Humidity | Pressure | Rain* | Wind** | Luminosity | Snow |
|---|---|---|---|---|---|---|---|
| 1777999833 | 25.56° C | 88% | 1001 hPa | 0 mm | 3.13 m/s, 182° | 86 W/m² | - |
| 1777999773 | 25.56° C | 88% | 1000.9 hPa | 0 mm | 2.68 m/s, 0° | 113 W/m² | - |
| 1777999714 | 25.56° C | 88% | 1001 hPa | 0 mm | 2.68 m/s, 185° | 146 W/m² | - |
| 1777999653 | 25.56° C | 88% | 1000.9 hPa | 0 mm | 2.68 m/s, 221° | 165 W/m² | - |
| 1777999593 | 25.56° C | 88% | 1001 hPa | 0 mm | 2.68 m/s, 188° | 171 W/m² | - |
| 1777999534 | 25.56° C | 88% | 1001 hPa | 0 mm | 2.68 m/s, 197° | 193 W/m² | - |
| 1777999473 | 25.56° C | 88% | 1001 hPa | 0 mm | 2.24 m/s, 193° | 211 W/m² | - |
| 1777999414 | 25.56° C | 88% | 1001 hPa | 0 mm | 1.79 m/s, 0° | 237 W/m² | - |
| 1777999353 | 25.56° C | 88% | 1001.1 hPa | 0 mm | 2.24 m/s, 0° | 237 W/m² | - |
| 1777999293 | 25.56° C | 88% | 1001 hPa | 0 mm | 2.68 m/s, 0° | 220 W/m² | - |
| 1777999233 | 25.56° C | 88% | 1001 hPa | 0 mm | 2.68 m/s, 0° | 197 W/m² | - |
| 1777999173 | 25.56° C | 88% | 1001 hPa | 0 mm | 3.13 m/s, 0° | 243 W/m² | - |
| 1777999114 | 25.56° C | 89% | 1001 hPa | 0 mm | 2.68 m/s, 0° | 287 W/m² | - |
| 1777999052 | 25.56° C | 89% | 1001.1 hPa | 0 mm | 2.68 m/s, 0° | 288 W/m² | - |
| 1777998993 | 25.56° C | 89% | 1001 hPa | 0 mm | 2.68 m/s, 0° | 308 W/m² | - |
| 1777998932 | 25.56° C | 89% | 1001 hPa | 0 mm | 2.24 m/s, 0° | 348 W/m² | - |
| 1777998875 | 25.56° C | 89% | 1001.1 hPa | 0 mm | 2.68 m/s, 0° | 317 W/m² | - |
| 1777998813 | 25.56° C | 89% | 1000.9 hPa | 0 mm | 3.13 m/s, 0° | 294 W/m² | - |
| 1777998752 | 25.56° C | 89% | 1001 hPa | 0 mm | 2.68 m/s, 0° | 324 W/m² | - |
| 1777998693 | 25.56° C | 89% | 1000.9 hPa | 0 mm | 3.13 m/s, 0° | 325 W/m² | - |
| 1777998632 | 25.56° C | 89% | 1001 hPa | 0 mm | 3.13 m/s, 0° | 288 W/m² | - |
| 1777998573 | 25.56° C | 89% | 1001.1 hPa | 0 mm | 3.13 m/s, 0° | 287 W/m² | - |
| 1777998512 | 25.56° C | 89% | 1001 hPa | 0 mm | 3.13 m/s, 0° | 237 W/m² | - |
| 1777998453 | 25.56° C | 89% | 1001 hPa | 0 mm | 2.68 m/s, 0° | 271 W/m² | - |
| 1777998392 | 25.56° C | 89% | 1001 hPa | 0 mm | 2.24 m/s, 0° | 311 W/m² | - |
* Rain latest hour (hover to see other rain measurements)
** Current wind speed in m/s (hover to see current wind gust speed)